Time;durP1;ratioP1;P1;durP2;ratioP2;P2;SDS_P1;SDS_P2;PMS_P1;PMS_P2;Temp;Humidity;BMP_temperature;BMP_pressure;BME280_temperature;BME280_humidity;BME280_pressure;Samples;Min_cycle;Max_cycle;Signal;HPM_P1;HPM_P2
2024/04/07 00:01:26;;;;;;;;;;;18.90;57.20;;;;;;4995953;28;81866;-39
2024/04/07 00:03:52;;;;;;;;;;;18.90;57.10;;;;;;4985936;28;82277;-39
2024/04/07 00:06:17;;;;;;;;;;;18.90;57.20;;;;;;4987781;28;81937;-39
2024/04/07 00:08:46;;;;;;;;;;;18.90;57.20;;;;;;4989610;28;81833;-39
2024/04/07 00:11:11;;;;;;;;;;;18.90;57.20;;;;;;4990432;28;81604;-39
2024/04/07 00:13:37;;;;;;;;;;;18.90;57.20;;;;;;4991885;28;82108;-39
2024/04/07 00:16:02;;;;;;;;;;;18.90;57.20;;;;;;4989916;28;82768;-39
2024/04/07 00:18:28;;;;;;;;;;;18.80;57.20;;;;;;4986954;28;83536;-39
2024/04/07 00:21:03;;;;;;;;;;;18.90;57.30;;;;;;4992881;28;82524;-39
2024/04/07 00:23:29;;;;;;;;;;;18.80;57.10;;;;;;4988411;28;83480;-40
2024/04/07 00:25:55;;;;;;;;;;;18.80;57.20;;;;;;4998249;28;82135;-39
2024/04/07 00:28:20;;;;;;;;;;;18.80;57.20;;;;;;4981438;28;82746;-40
2024/04/07 00:30:47;;;;;;;;;;;18.80;57.20;;;;;;4994075;28;83261;-40
2024/04/07 00:33:12;;;;;;;;;;;18.80;57.20;;;;;;4983531;28;82751;-39
2024/04/07 00:35:38;;;;;;;;;;;18.80;57.30;;;;;;4987315;28;83446;-39
2024/04/07 00:38:04;;;;;;;;;;;18.80;57.30;;;;;;4993630;28;82263;-40
2024/04/07 00:40:29;;;;;;;;;;;18.80;57.40;;;;;;4984036;28;81980;-39
2024/04/07 00:42:55;;;;;;;;;;;18.80;57.40;;;;;;4995930;28;82900;-40
2024/04/07 00:45:21;;;;;;;;;;;18.80;57.40;;;;;;4988915;28;81903;-39
2024/04/07 00:47:46;;;;;;;;;;;18.80;57.40;;;;;;4988406;28;82022;-41
2024/04/07 00:50:13;;;;;;;;;;;18.80;57.40;;;;;;4986767;28;82825;-39
2024/04/07 00:52:38;;;;;;;;;;;18.70;57.30;;;;;;4987975;28;82256;-38
2024/04/07 00:55:05;;;;;;;;;;;18.70;57.50;;;;;;4995147;28;82779;-40
2024/04/07 00:57:31;;;;;;;;;;;18.70;57.50;;;;;;4981272;28;83976;-39
2024/04/07 00:59:57;;;;;;;;;;;18.70;57.50;;;;;;4993380;28;81299;-39
2024/04/07 01:02:23;;;;;;;;;;;18.70;57.50;;;;;;4981339;28;83016;-39
2024/04/07 01:04:49;;;;;;;;;;;18.70;57.60;;;;;;4981471;28;83702;-40
2024/04/07 01:07:14;;;;;;;;;;;18.70;57.60;;;;;;4985739;28;84570;-39
2024/04/07 01:09:40;;;;;;;;;;;18.70;57.60;;;;;;4983963;28;82758;-39
2024/04/07 01:12:12;;;;;;;;;;;18.70;57.70;;;;;;4998582;28;81901;-39
2024/04/07 01:14:38;;;;;;;;;;;18.60;57.60;;;;;;4992487;28;82350;-39
2024/04/07 01:17:06;;;;;;;;;;;18.60;57.70;;;;;;4998469;28;82971;-39
2024/04/07 01:19:32;;;;;;;;;;;18.60;57.70;;;;;;4996575;28;81954;-39
2024/04/07 01:21:57;;;;;;;;;;;18.60;57.60;;;;;;4989828;28;81985;-39
2024/04/07 01:24:23;;;;;;;;;;;18.60;57.70;;;;;;5004457;28;81889;-39
2024/04/07 01:26:48;;;;;;;;;;;18.60;57.80;;;;;;4994343;28;82233;-39
2024/04/07 01:29:14;;;;;;;;;;;18.60;57.80;;;;;;4992526;28;82668;-39
2024/04/07 01:31:39;;;;;;;;;;;18.60;57.70;;;;;;4989344;28;82913;-39
2024/04/07 01:34:05;;;;;;;;;;;18.60;57.80;;;;;;4987301;28;83234;-39
2024/04/07 01:36:30;;;;;;;;;;;18.60;57.80;;;;;;4995069;28;82612;-39
2024/04/07 01:38:56;;;;;;;;;;;18.60;57.80;;;;;;4986490;28;81964;-40
2024/04/07 01:41:21;;;;;;;;;;;18.50;57.80;;;;;;4996867;28;83089;-40
2024/04/07 01:43:47;;;;;;;;;;;18.50;57.80;;;;;;4989987;28;82804;-39
2024/04/07 01:46:13;;;;;;;;;;;18.50;57.80;;;;;;4994852;28;81931;-39
2024/04/07 01:48:40;;;;;;;;;;;18.50;57.90;;;;;;5004068;28;82176;-38
2024/04/07 01:51:07;;;;;;;;;;;18.50;57.80;;;;;;4989056;28;81960;-39
2024/04/07 01:53:32;;;;;;;;;;;18.50;57.80;;;;;;4997017;28;83066;-39
2024/04/07 01:55:58;;;;;;;;;;;18.50;57.70;;;;;;4986769;28;83026;-39
2024/04/07 01:58:24;;;;;;;;;;;18.50;57.70;;;;;;4992843;28;82063;-39
2024/04/07 02:00:50;;;;;;;;;;;18.50;57.60;;;;;;4993690;28;82122;-39
2024/04/07 02:03:15;;;;;;;;;;;18.50;57.50;;;;;;4983374;28;83660;-39
2024/04/07 02:05:41;;;;;;;;;;;18.40;57.40;;;;;;4998366;28;82247;-39
2024/04/07 02:08:06;;;;;;;;;;;18.50;57.40;;;;;;4988923;28;82401;-39
2024/04/07 02:10:32;;;;;;;;;;;18.50;57.40;;;;;;4992243;28;82051;-39
2024/04/07 02:12:58;;;;;;;;;;;18.40;57.20;;;;;;4996487;28;81183;-39
2024/04/07 02:15:24;;;;;;;;;;;18.40;57.30;;;;;;4984102;28;82627;-39
2024/04/07 02:17:50;;;;;;;;;;;18.40;57.20;;;;;;4999213;28;82135;-39
2024/04/07 02:20:16;;;;;;;;;;;18.40;57.20;;;;;;4985354;28;82801;-38
2024/04/07 02:22:42;;;;;;;;;;;18.40;57.20;;;;;;4993002;28;83419;-39
2024/04/07 02:25:08;;;;;;;;;;;18.40;57.30;;;;;;4991390;28;82616;-39
2024/04/07 02:27:35;;;;;;;;;;;18.40;57.30;;;;;;4990165;28;83498;-39
2024/04/07 02:30:01;;;;;;;;;;;18.40;57.30;;;;;;4994286;28;81892;-39
2024/04/07 02:32:26;;;;;;;;;;;18.30;57.20;;;;;;4982424;28;81972;-39
2024/04/07 02:34:52;;;;;;;;;;;18.30;57.30;;;;;;4988106;28;81915;-39
2024/04/07 02:37:17;;;;;;;;;;;18.30;57.30;;;;;;4990508;28;81248;-38
2024/04/07 02:39:43;;;;;;;;;;;18.30;57.30;;;;;;4993315;28;81985;-39
2024/04/07 02:42:08;;;;;;;;;;;18.30;57.30;;;;;;4998445;28;82477;-38
2024/04/07 02:50:02;;;;;;;;;;;18.30;57.40;;;;;;4980608;28;82689;-38
2024/04/07 02:52:28;;;;;;;;;;;18.30;57.40;;;;;;4995339;28;82037;-39
2024/04/07 02:54:53;;;;;;;;;;;18.30;57.50;;;;;;4987021;28;84316;-39
2024/04/07 02:57:19;;;;;;;;;;;18.30;57.50;;;;;;4988301;28;81835;-39
2024/04/07 02:59:46;;;;;;;;;;;18.30;57.50;;;;;;4990789;28;81863;-39
2024/04/07 03:02:12;;;;;;;;;;;18.30;57.60;;;;;;4988454;28;81139;-39
2024/04/07 03:04:38;;;;;;;;;;;18.20;57.50;;;;;;4997808;28;82515;-38
2024/04/07 03:07:03;;;;;;;;;;;18.20;57.60;;;;;;4986474;28;83512;-39
2024/04/07 03:09:29;;;;;;;;;;;18.20;57.60;;;;;;4990984;28;82851;-39
2024/04/07 03:11:55;;;;;;;;;;;18.20;57.70;;;;;;4992433;28;81767;-39
2024/04/07 03:14:20;;;;;;;;;;;18.20;57.70;;;;;;4988975;28;82184;-39
2024/04/07 03:16:46;;;;;;;;;;;18.20;57.70;;;;;;4994956;28;81984;-39
2024/04/07 03:19:12;;;;;;;;;;;18.20;57.80;;;;;;4989820;28;82020;-39
2024/04/07 03:21:37;;;;;;;;;;;18.20;57.80;;;;;;4990707;28;83264;-38
2024/04/07 03:24:03;;;;;;;;;;;18.20;57.80;;;;;;4989245;28;82005;-39
2024/04/07 03:26:29;;;;;;;;;;;18.10;57.80;;;;;;4995237;28;82438;-39
2024/04/07 03:28:55;;;;;;;;;;;18.10;57.90;;;;;;5000573;28;83595;-39
2024/04/07 03:31:20;;;;;;;;;;;18.20;58.00;;;;;;4989866;28;82111;-39
2024/04/07 03:33:49;;;;;;;;;;;18.20;58.00;;;;;;4994931;28;83283;-39
2024/04/07 03:36:14;;;;;;;;;;;18.10;58.00;;;;;;4993860;28;81933;-39
2024/04/07 03:38:40;;;;;;;;;;;18.10;58.00;;;;;;4986225;28;81972;-39
2024/04/07 03:41:06;;;;;;;;;;;18.10;58.00;;;;;;4989577;28;82219;-39
2024/04/07 03:43:32;;;;;;;;;;;18.10;58.10;;;;;;4978321;28;82072;-39
2024/04/07 03:46:01;;;;;;;;;;;18.10;58.10;;;;;;4995983;28;81920;-39
2024/04/07 03:48:26;;;;;;;;;;;18.10;58.20;;;;;;4980816;28;82028;-39
2024/04/07 03:50:52;;;;;;;;;;;18.10;58.10;;;;;;4995513;28;81354;-38
2024/04/07 03:53:18;;;;;;;;;;;18.10;58.20;;;;;;4993855;28;81869;-39
2024/04/07 03:55:43;;;;;;;;;;;18.10;58.20;;;;;;4983025;28;82332;-39
2024/04/07 03:58:09;;;;;;;;;;;18.10;58.20;;;;;;4994275;28;83733;-39
2024/04/07 04:00:34;;;;;;;;;;;18.00;58.20;;;;;;4978526;28;82569;-39
2024/04/07 04:03:00;;;;;;;;;;;18.00;58.20;;;;;;4994118;28;82001;-39
2024/04/07 04:05:26;;;;;;;;;;;18.10;58.30;;;;;;4991144;28;83374;-39
2024/04/07 04:07:51;;;;;;;;;;;18.00;58.30;;;;;;4988736;28;83386;-39
2024/04/07 04:10:17;;;;;;;;;;;18.00;58.30;;;;;;4995989;28;81987;-39
2024/04/07 04:12:43;;;;;;;;;;;18.00;58.30;;;;;;4986002;28;82218;-39
2024/04/07 04:15:09;;;;;;;;;;;18.00;58.40;;;;;;4999336;28;83039;-38
2024/04/07 04:17:35;;;;;;;;;;;18.00;58.40;;;;;;4994141;28;81986;-39
2024/04/07 04:20:03;;;;;;;;;;;18.00;58.40;;;;;;4987361;28;83090;-40
2024/04/07 04:22:28;;;;;;;;;;;18.00;58.50;;;;;;4986603;28;83777;-39
2024/04/07 04:24:55;;;;;;;;;;;18.00;58.60;;;;;;4983761;28;82623;-39
2024/04/07 04:27:21;;;;;;;;;;;18.00;58.60;;;;;;4994782;28;82249;-39
2024/04/07 04:29:47;;;;;;;;;;;18.00;58.60;;;;;;4988809;28;81934;-39
2024/04/07 04:32:12;;;;;;;;;;;18.00;58.60;;;;;;4989645;28;81984;-39
2024/04/07 04:34:38;;;;;;;;;;;17.90;58.60;;;;;;4996174;28;81916;-39
2024/04/07 04:37:04;;;;;;;;;;;17.90;58.60;;;;;;4984699;28;81950;-39
2024/04/07 04:39:29;;;;;;;;;;;17.90;58.60;;;;;;5003100;28;82068;-39
2024/04/07 04:41:55;;;;;;;;;;;17.90;58.60;;;;;;4984484;28;81916;-38
2024/04/07 04:44:21;;;;;;;;;;;17.90;58.60;;;;;;4988604;28;82986;-39
2024/04/07 04:46:48;;;;;;;;;;;17.90;58.60;;;;;;4992217;28;83197;-39
2024/04/07 04:49:14;;;;;;;;;;;17.90;58.60;;;;;;4989256;28;82505;-39
2024/04/07 04:51:39;;;;;;;;;;;17.90;58.60;;;;;;4994350;28;81866;-39
2024/04/07 04:54:05;;;;;;;;;;;17.90;58.60;;;;;;4986705;28;82531;-39
2024/04/07 04:56:31;;;;;;;;;;;17.90;58.70;;;;;;4992200;28;82193;-39
2024/04/07 04:58:57;;;;;;;;;;;17.90;58.70;;;;;;4988629;28;82408;-39
2024/04/07 05:01:23;;;;;;;;;;;17.90;58.70;;;;;;4992264;28;82583;-39
2024/04/07 05:03:48;;;;;;;;;;;17.90;58.70;;;;;;4998482;28;81409;-39
2024/04/07 05:06:16;;;;;;;;;;;17.90;58.70;;;;;;4985655;28;83427;-39
2024/04/07 05:08:42;;;;;;;;;;;17.90;58.80;;;;;;4996410;28;81956;-39
2024/04/07 05:11:08;;;;;;;;;;;17.90;58.80;;;;;;4984812;28;83300;-39
2024/04/07 05:13:34;;;;;;;;;;;17.90;58.90;;;;;;4994080;28;82668;-39
2024/04/07 05:16:00;;;;;;;;;;;17.90;58.80;;;;;;4993473;28;82228;-39
2024/04/07 05:18:25;;;;;;;;;;;17.90;58.80;;;;;;4989436;28;82175;-39
2024/04/07 05:20:51;;;;;;;;;;;17.80;58.80;;;;;;4996268;28;82641;-39
2024/04/07 05:23:17;;;;;;;;;;;17.80;58.90;;;;;;4979420;28;82025;-39
2024/04/07 05:25:42;;;;;;;;;;;17.90;58.90;;;;;;4991477;28;82486;-39
2024/04/07 05:28:08;;;;;;;;;;;17.80;58.90;;;;;;4996432;28;81247;-39
2024/04/07 05:30:37;;;;;;;;;;;17.90;59.00;;;;;;4985848;28;82044;-39
2024/04/07 05:33:03;;;;;;;;;;;17.80;58.90;;;;;;4999459;28;82789;-39
2024/04/07 05:35:28;;;;;;;;;;;17.90;59.00;;;;;;4981337;28;82864;-41
2024/04/07 05:37:54;;;;;;;;;;;17.80;59.00;;;;;;4992394;28;83970;-39
2024/04/07 05:40:19;;;;;;;;;;;17.90;59.00;;;;;;4987731;28;82588;-39
2024/04/07 05:42:45;;;;;;;;;;;17.90;59.10;;;;;;4989691;28;81961;-39
2024/04/07 05:45:10;;;;;;;;;;;17.90;59.10;;;;;;4988752;28;82654;-38
2024/04/07 05:47:36;;;;;;;;;;;17.90;59.10;;;;;;4988681;28;82136;-39
2024/04/07 05:50:02;;;;;;;;;;;17.90;59.00;;;;;;4996167;28;81935;-39
2024/04/07 05:52:27;;;;;;;;;;;17.90;58.90;;;;;;4983317;28;83247;-39
2024/04/07 05:54:53;;;;;;;;;;;17.90;59.60;;;;;;4994295;28;82884;-39
2024/04/07 05:57:18;;;;;;;;;;;17.90;58.90;;;;;;4997948;28;82302;-39
2024/04/07 05:59:47;;;;;;;;;;;17.90;58.90;;;;;;4989943;28;83517;-39
2024/04/07 06:02:12;;;;;;;;;;;17.90;58.90;;;;;;4999833;28;83076;-39
2024/04/07 06:04:39;;;;;;;;;;;17.90;59.00;;;;;;4998469;28;82421;-38
2024/04/07 06:07:05;;;;;;;;;;;17.90;59.00;;;;;;4990401;28;82001;-39
2024/04/07 06:09:30;;;;;;;;;;;17.90;58.90;;;;;;4989484;28;83034;-40
2024/04/07 06:11:56;;;;;;;;;;;17.90;59.00;;;;;;4986841;28;82757;-39
2024/04/07 06:14:21;;;;;;;;;;;17.90;59.00;;;;;;4999058;28;81962;-39
2024/04/07 06:16:47;;;;;;;;;;;17.90;59.10;;;;;;4987351;28;82942;-39
2024/04/07 06:19:13;;;;;;;;;;;17.90;59.20;;;;;;4989673;28;82738;-39
2024/04/07 06:21:39;;;;;;;;;;;17.90;59.20;;;;;;4987293;28;82043;-39
2024/04/07 06:24:05;;;;;;;;;;;17.90;59.80;;;;;;4987623;28;83131;-39
2024/04/07 06:26:30;;;;;;;;;;;17.90;59.20;;;;;;4992946;28;84676;-39
2024/04/07 06:28:56;;;;;;;;;;;17.90;59.20;;;;;;4984414;28;82091;-39
2024/04/07 06:31:22;;;;;;;;;;;17.90;59.30;;;;;;4998189;28;82580;-39
2024/04/07 06:33:47;;;;;;;;;;;17.90;59.10;;;;;;4989402;28;82028;-39
2024/04/07 06:36:13;;;;;;;;;;;17.90;59.10;;;;;;4996212;28;82073;-39
2024/04/07 06:38:38;;;;;;;;;;;17.90;59.10;;;;;;4993352;28;83522;-39
2024/04/07 06:41:04;;;;;;;;;;;18.00;59.20;;;;;;4989899;28;81337;-39
2024/04/07 06:43:30;;;;;;;;;;;17.90;59.20;;;;;;4991313;28;81973;-39
2024/04/07 06:45:58;;;;;;;;;;;17.90;59.20;;;;;;4988424;28;82444;-39
2024/04/07 06:48:24;;;;;;;;;;;17.90;59.20;;;;;;4996262;28;83201;-39
2024/04/07 06:50:50;;;;;;;;;;;17.90;59.10;;;;;;4990456;28;83648;-39
2024/04/07 06:53:17;;;;;;;;;;;17.90;59.20;;;;;;4991618;28;82011;-39
2024/04/07 06:55:43;;;;;;;;;;;17.90;59.10;;;;;;5000398;28;83038;-39
2024/04/07 06:58:09;;;;;;;;;;;17.90;59.70;;;;;;4984690;28;82543;-39
2024/04/07 07:00:34;;;;;;;;;;;17.90;59.10;;;;;;4996754;28;82485;-39
2024/04/07 07:03:00;;;;;;;;;;;17.90;59.10;;;;;;4982509;28;82235;-39
2024/04/07 07:05:25;;;;;;;;;;;17.90;59.10;;;;;;4992614;28;81799;-39
2024/04/07 07:07:51;;;;;;;;;;;17.90;59.20;;;;;;5002886;28;81940;-39
2024/04/07 07:10:17;;;;;;;;;;;17.90;59.10;;;;;;4989421;28;82094;-38
2024/04/07 07:12:42;;;;;;;;;;;17.90;59.20;;;;;;4999162;28;83156;-39
2024/04/07 07:15:08;;;;;;;;;;;17.80;59.10;;;;;;4987621;28;83761;-39
2024/04/07 07:17:33;;;;;;;;;;;17.90;59.20;;;;;;4992186;28;83222;-39
2024/04/07 07:19:59;;;;;;;;;;;17.80;59.20;;;;;;4992106;28;81853;-39
2024/04/07 07:22:24;;;;;;;;;;;17.90;59.30;;;;;;4979873;28;82239;-39
2024/04/07 07:24:50;;;;;;;;;;;17.90;59.30;;;;;;4997223;28;82676;-40
2024/04/07 07:27:16;;;;;;;;;;;17.90;59.30;;;;;;4986771;28;82001;-39
2024/04/07 07:29:41;;;;;;;;;;;17.90;59.20;;;;;;4993592;28;81347;-39
2024/04/07 07:32:07;;;;;;;;;;;17.90;59.20;;;;;;4987888;28;82250;-39
2024/04/07 07:34:33;;;;;;;;;;;17.90;59.20;;;;;;4986108;28;83207;-39
2024/04/07 07:36:58;;;;;;;;;;;17.90;59.20;;;;;;4998160;28;83669;-39
2024/04/07 07:39:24;;;;;;;;;;;18.00;59.20;;;;;;4983547;28;82281;-39
2024/04/07 07:41:49;;;;;;;;;;;18.00;59.20;;;;;;4993846;28;82431;-39
2024/04/07 07:44:15;;;;;;;;;;;17.90;59.20;;;;;;4988058;28;82644;-39
2024/04/07 07:46:40;;;;;;;;;;;17.90;59.10;;;;;;4993233;28;82506;-38
2024/04/07 07:49:06;;;;;;;;;;;17.90;59.20;;;;;;4999391;28;81977;-38
2024/04/07 07:51:32;;;;;;;;;;;17.90;59.10;;;;;;4985578;28;83946;-38
2024/04/07 07:53:58;;;;;;;;;;;18.00;59.20;;;;;;4999684;28;81704;-38
2024/04/07 07:56:23;;;;;;;;;;;17.90;59.10;;;;;;4979590;28;82650;-38
2024/04/07 07:58:49;;;;;;;;;;;17.90;59.10;;;;;;4989001;28;81999;-38
2024/04/07 08:01:14;;;;;;;;;;;18.00;59.10;;;;;;4997727;28;82940;-38
2024/04/07 08:03:40;;;;;;;;;;;17.90;59.10;;;;;;4991826;28;81966;-38
2024/04/07 08:06:06;;;;;;;;;;;18.00;59.10;;;;;;5000540;28;81763;-39
2024/04/07 08:08:31;;;;;;;;;;;18.00;59.10;;;;;;4985825;28;81833;-39
2024/04/07 08:10:58;;;;;;;;;;;18.00;59.00;;;;;;4989532;28;82599;-39
2024/04/07 08:13:23;;;;;;;;;;;18.00;59.10;;;;;;4992330;28;81988;-38
2024/04/07 08:15:49;;;;;;;;;;;18.00;59.00;;;;;;4988514;28;82489;-38
2024/04/07 08:18:15;;;;;;;;;;;18.00;58.90;;;;;;4998775;28;81299;-38
2024/04/07 08:20:41;;;;;;;;;;;18.10;58.80;;;;;;4985864;28;82643;-37
2024/04/07 08:23:07;;;;;;;;;;;18.10;59.00;;;;;;4991637;28;82581;-39
2024/04/07 08:25:33;;;;;;;;;;;18.10;58.80;;;;;;4989955;28;82941;-38
2024/04/07 08:27:59;;;;;;;;;;;18.10;58.90;;;;;;4989906;28;82995;-38
2024/04/07 08:30:24;;;;;;;;;;;18.10;58.90;;;;;;4992603;28;83395;-38
2024/04/07 08:32:50;;;;;;;;;;;18.00;58.80;;;;;;4984253;28;82155;-38
2024/04/07 08:35:15;;;;;;;;;;;18.10;58.80;;;;;;4999990;28;82070;-38
2024/04/07 08:37:41;;;;;;;;;;;18.10;58.80;;;;;;4982695;28;82436;-38
2024/04/07 08:40:07;;;;;;;;;;;18.10;58.80;;;;;;4988586;28;82997;-39
2024/04/07 08:42:33;;;;;;;;;;;18.10;58.70;;;;;;4992704;28;82918;-39
2024/04/07 08:45:03;;;;;;;;;;;18.10;58.70;;;;;;4990258;28;82494;-39
2024/04/07 08:47:29;;;;;;;;;;;18.10;58.80;;;;;;4997711;28;82945;-39
2024/04/07 08:49:57;;;;;;;;;;;18.10;58.60;;;;;;4976962;28;84636;-38
2024/04/07 08:52:23;;;;;;;;;;;18.10;58.80;;;;;;4992469;28;81980;-38
2024/04/07 08:54:49;;;;;;;;;;;18.10;58.80;;;;;;4988983;28;82842;-39
2024/04/07 08:57:15;;;;;;;;;;;18.10;58.70;;;;;;4989035;28;82830;-38
2024/04/07 08:59:40;;;;;;;;;;;18.10;58.70;;;;;;4999407;28;83251;-38
2024/04/07 09:02:07;;;;;;;;;;;18.20;58.80;;;;;;4981276;28;82481;-38
2024/04/07 09:04:33;;;;;;;;;;;18.20;58.80;;;;;;4996179;28;81880;-38
2024/04/07 09:07:03;;;;;;;;;;;18.20;58.60;;;;;;4983849;28;82077;-38
2024/04/07 09:09:29;;;;;;;;;;;18.20;58.70;;;;;;4988681;28;82429;-39
2024/04/07 09:11:54;;;;;;;;;;;18.20;58.70;;;;;;4994078;28;82125;-38
2024/04/07 09:14:20;;;;;;;;;;;18.20;58.80;;;;;;4983416;28;82939;-38
2024/04/07 09:16:46;;;;;;;;;;;18.20;58.70;;;;;;4999232;28;83698;-38
2024/04/07 09:19:12;;;;;;;;;;;18.20;58.70;;;;;;4987150;28;81992;-46
2024/04/07 09:21:43;;;;;;;;;;;18.30;58.90;;;;;;4994052;28;82649;-38
2024/04/07 09:24:09;;;;;;;;;;;18.30;58.80;;;;;;4997938;28;81815;-39
2024/04/07 09:26:34;;;;;;;;;;;18.30;58.80;;;;;;4987227;28;82284;-39
2024/04/07 09:29:00;;;;;;;;;;;18.30;58.60;;;;;;4994371;28;82646;-38
2024/04/07 09:31:26;;;;;;;;;;;18.30;58.70;;;;;;4977911;28;81630;-38
2024/04/07 09:33:51;;;;;;;;;;;18.30;58.80;;;;;;4999091;28;82350;-38
2024/04/07 09:36:17;;;;;;;;;;;18.30;58.70;;;;;;4993217;28;82968;-38
2024/04/07 09:38:42;;;;;;;;;;;18.30;58.50;;;;;;4996276;28;83016;-38
2024/04/07 09:41:10;;;;;;;;;;;18.30;58.70;;;;;;4992274;28;82703;-38
2024/04/07 09:43:38;;;;;;;;;;;18.30;58.80;;;;;;4988944;28;82102;-38
2024/04/07 09:46:05;;;;;;;;;;;18.30;58.70;;;;;;4996573;28;83334;-39
2024/04/07 09:48:32;;;;;;;;;;;18.40;58.70;;;;;;4992219;28;82505;-39
2024/04/07 09:50:58;;;;;;;;;;;18.40;58.80;;;;;;4994922;28;81933;-38
2024/04/07 09:53:34;;;;;;;;;;;18.40;58.90;;;;;;4995491;28;82062;-38
2024/04/07 09:56:02;;;;;;;;;;;18.40;58.70;;;;;;4987205;28;81053;-39
2024/04/07 09:58:28;;;;;;;;;;;18.40;58.70;;;;;;4993715;28;83288;-38
2024/04/07 10:00:54;;;;;;;;;;;18.40;58.70;;;;;;4981020;28;82980;-38
2024/04/07 10:03:20;;;;;;;;;;;18.40;58.70;;;;;;4994898;28;83223;-38
2024/04/07 10:05:46;;;;;;;;;;;18.40;58.70;;;;;;4997012;28;82848;-38
2024/04/07 10:08:11;;;;;;;;;;;18.40;58.80;;;;;;4985661;28;82611;-37
2024/04/07 10:10:37;;;;;;;;;;;18.40;59.40;;;;;;4988650;28;81952;-39
2024/04/07 10:13:06;;;;;;;;;;;18.40;58.70;;;;;;4985037;28;82255;-38
2024/04/07 10:15:32;;;;;;;;;;;18.40;58.80;;;;;;4999696;28;82670;-38
2024/04/07 10:17:57;;;;;;;;;;;18.40;58.80;;;;;;4989514;28;82234;-39
2024/04/07 10:20:25;;;;;;;;;;;18.40;58.70;;;;;;4990017;28;81122;-38
2024/04/07 10:22:51;;;;;;;;;;;18.40;58.60;;;;;;5002015;28;83506;-38
2024/04/07 10:25:16;;;;;;;;;;;18.40;58.70;;;;;;4980592;28;82032;-38
2024/04/07 10:27:43;;;;;;;;;;;18.40;58.50;;;;;;4995639;28;84511;-38
2024/04/07 10:30:10;;;;;;;;;;;18.40;58.50;;;;;;4984927;28;82148;-38
2024/04/07 10:32:38;;;;;;;;;;;18.40;58.40;;;;;;4994152;28;82276;-40
2024/04/07 10:35:05;;;;;;;;;;;18.40;58.50;;;;;;4993316;28;83634;-39
2024/04/07 10:37:31;;;;;;;;;;;18.40;58.40;;;;;;4992143;28;82110;-39
2024/04/07 10:39:57;;;;;;;;;;;18.50;58.50;;;;;;4999226;28;82008;-38
2024/04/07 10:42:23;;;;;;;;;;;18.40;58.40;;;;;;4988686;28;82413;-39
2024/04/07 10:44:49;;;;;;;;;;;18.50;58.30;;;;;;5001233;28;81273;-38
2024/04/07 10:47:16;;;;;;;;;;;18.40;58.40;;;;;;4981741;28;82405;-39
2024/04/07 10:49:43;;;;;;;;;;;18.50;58.20;;;;;;4985894;28;82065;-38
2024/04/07 10:52:15;;;;;;;;;;;18.50;58.40;;;;;;4999373;28;83548;-39
2024/04/07 10:54:40;;;;;;;;;;;18.50;58.10;;;;;;4989201;28;83491;-38
2024/04/07 10:57:09;;;;;;;;;;;18.50;58.40;;;;;;4993034;28;82003;-38
2024/04/07 10:59:35;;;;;;;;;;;18.50;58.30;;;;;;4986957;28;82088;-39
2024/04/07 11:02:01;;;;;;;;;;;18.50;58.30;;;;;;4995574;28;81949;-39
2024/04/07 11:04:29;;;;;;;;;;;18.50;58.40;;;;;;4990481;27;82997;-38
2024/04/07 11:06:55;;;;;;;;;;;18.50;58.40;;;;;;4990937;28;82956;-39
2024/04/07 11:09:20;;;;;;;;;;;18.60;58.20;;;;;;5001485;28;81250;-38
2024/04/07 11:11:46;;;;;;;;;;;18.60;58.20;;;;;;4985582;28;83122;-39
2024/04/07 11:14:12;;;;;;;;;;;18.60;57.80;;;;;;4992543;28;82933;-38
2024/04/07 11:16:38;;;;;;;;;;;18.60;58.10;;;;;;4987752;28;83217;-39
2024/04/07 11:19:03;;;;;;;;;;;18.60;57.90;;;;;;4985873;28;82974;-39
2024/04/07 11:21:29;;;;;;;;;;;18.60;57.80;;;;;;4999736;28;82657;-38
2024/04/07 11:23:55;;;;;;;;;;;18.60;57.60;;;;;;4985865;28;81904;-39
2024/04/07 11:26:20;;;;;;;;;;;18.60;57.80;;;;;;4995037;28;82027;-38
2024/04/07 11:28:49;;;;;;;;;;;18.60;57.60;;;;;;4997645;28;82532;-39
2024/04/07 11:31:18;;;;;;;;;;;18.70;57.90;;;;;;4990254;28;82043;-38
2024/04/07 11:33:44;;;;;;;;;;;18.70;57.80;;;;;;5001454;28;81493;-39
2024/04/07 11:36:10;;;;;;;;;;;18.70;57.60;;;;;;4987354;28;82007;-39
2024/04/07 11:38:35;;;;;;;;;;;18.70;57.80;;;;;;5001189;28;82151;-39
2024/04/07 11:41:01;;;;;;;;;;;18.80;57.80;;;;;;4990236;28;83581;-39
2024/04/07 11:43:26;;;;;;;;;;;18.80;57.90;;;;;;4993982;28;82476;-39
2024/04/07 11:45:52;;;;;;;;;;;18.80;57.90;;;;;;4988637;28;83405;-38
2024/04/07 11:48:18;;;;;;;;;;;18.80;57.90;;;;;;4991839;28;82632;-39
2024/04/07 11:50:43;;;;;;;;;;;18.80;58.20;;;;;;5001880;28;82065;-38
2024/04/07 11:53:09;;;;;;;;;;;18.80;58.20;;;;;;4986662;28;82070;-39
2024/04/07 11:55:34;;;;;;;;;;;18.80;58.10;;;;;;4992671;28;82079;-39
2024/04/07 11:58:00;;;;;;;;;;;18.90;58.10;;;;;;4994033;28;83015;-39
2024/04/07 12:00:25;;;;;;;;;;;18.90;58.00;;;;;;4989940;28;83556;-39
2024/04/07 12:02:51;;;;;;;;;;;18.90;58.00;;;;;;5002375;28;82002;-39
2024/04/07 12:05:16;;;;;;;;;;;18.90;57.90;;;;;;4986288;28;82724;-39
2024/04/07 12:07:42;;;;;;;;;;;18.90;58.00;;;;;;4995734;28;82365;-38
2024/04/07 12:10:07;;;;;;;;;;;18.90;58.00;;;;;;4994185;28;81921;-39
2024/04/07 12:12:33;;;;;;;;;;;18.90;57.90;;;;;;4987523;28;83858;-39
2024/04/07 12:14:59;;;;;;;;;;;18.90;58.00;;;;;;4988257;28;82040;-39
2024/04/07 12:17:25;;;;;;;;;;;18.90;57.80;;;;;;4986164;28;82106;-39
2024/04/07 12:19:51;;;;;;;;;;;18.90;57.90;;;;;;5002943;28;82643;-39
2024/04/07 12:22:17;;;;;;;;;;;18.90;57.80;;;;;;4985695;28;81770;-39
2024/04/07 12:24:43;;;;;;;;;;;19.00;57.90;;;;;;4992403;28;82182;-39
2024/04/07 12:27:09;;;;;;;;;;;18.90;57.60;;;;;;4989205;28;82065;-39
2024/04/07 12:29:34;;;;;;;;;;;18.90;57.70;;;;;;4986083;28;83425;-40
2024/04/07 12:32:00;;;;;;;;;;;19.00;57.70;;;;;;5005487;28;82861;-39
2024/04/07 12:34:26;;;;;;;;;;;18.90;57.50;;;;;;4985836;28;82123;-39
2024/04/07 12:36:52;;;;;;;;;;;18.90;57.30;;;;;;4998504;28;82548;-39
2024/04/07 12:39:17;;;;;;;;;;;19.00;57.50;;;;;;4998596;28;82571;-39
2024/04/07 12:41:44;;;;;;;;;;;19.00;57.40;;;;;;4989615;28;82533;-39
2024/04/07 12:44:10;;;;;;;;;;;19.00;57.50;;;;;;4992220;28;82066;-39
2024/04/07 12:46:35;;;;;;;;;;;19.00;57.50;;;;;;4985902;28;82467;-40
2024/04/07 12:49:02;;;;;;;;;;;19.00;57.20;;;;;;4990486;28;82783;-40
2024/04/07 12:51:28;;;;;;;;;;;19.00;57.30;;;;;;4988578;28;83016;-39
2024/04/07 12:53:53;;;;;;;;;;;19.00;57.30;;;;;;4992422;28;82866;-39
2024/04/07 12:56:19;;;;;;;;;;;18.90;57.30;;;;;;4998390;28;84403;-41
2024/04/07 12:58:44;;;;;;;;;;;19.00;57.20;;;;;;4980806;28;82584;-39
2024/04/07 13:01:10;;;;;;;;;;;18.90;57.30;;;;;;4998005;28;82522;-39
2024/04/07 13:03:36;;;;;;;;;;;18.90;56.10;;;;;;4983822;28;82841;-39
2024/04/07 13:06:02;;;;;;;;;;;18.80;55.70;;;;;;4992057;28;82399;-38
2024/04/07 13:08:27;;;;;;;;;;;18.90;55.00;;;;;;4987907;28;82053;-39
2024/04/07 13:10:54;;;;;;;;;;;18.80;55.30;;;;;;4989413;28;81247;-39
2024/04/07 13:13:20;;;;;;;;;;;18.90;55.70;;;;;;4995407;28;82810;-40
2024/04/07 13:15:46;;;;;;;;;;;18.90;55.50;;;;;;4990101;28;81969;-40
2024/04/07 13:18:12;;;;;;;;;;;19.00;55.90;;;;;;4991130;28;84479;-40
2024/04/07 13:20:37;;;;;;;;;;;19.00;55.90;;;;;;4996348;28;82115;-40
2024/04/07 13:23:03;;;;;;;;;;;19.10;56.10;;;;;;4990644;28;82062;-39
2024/04/07 13:25:29;;;;;;;;;;;19.00;56.10;;;;;;4996069;28;82407;-39
2024/04/07 13:27:57;;;;;;;;;;;19.00;56.10;;;;;;4987282;28;81918;-39
2024/04/07 13:30:25;;;;;;;;;;;19.10;56.20;;;;;;4996113;28;82920;-40
2024/04/07 13:32:50;;;;;;;;;;;19.10;56.30;;;;;;4994952;28;82633;-39
2024/04/07 13:35:16;;;;;;;;;;;19.10;56.30;;;;;;4995588;28;81330;-39
2024/04/07 13:37:41;;;;;;;;;;;19.10;56.30;;;;;;5007121;28;81916;-40
2024/04/07 13:40:07;;;;;;;;;;;19.20;56.30;;;;;;4990486;28;82235;-40
2024/04/07 13:42:32;;;;;;;;;;;19.20;56.40;;;;;;4996006;28;82772;-40
2024/04/07 13:45:00;;;;;;;;;;;19.20;56.40;;;;;;4984097;28;82434;-40
2024/04/07 13:47:26;;;;;;;;;;;19.20;56.40;;;;;;4993140;28;82029;-39
2024/04/07 13:49:52;;;;;;;;;;;19.20;56.40;;;;;;4998340;28;81933;-39
2024/04/07 13:52:17;;;;;;;;;;;19.20;56.50;;;;;;4988497;28;82513;-39
2024/04/07 13:54:43;;;;;;;;;;;19.20;56.40;;;;;;4999142;28;82026;-39
2024/04/07 13:57:08;;;;;;;;;;;19.20;56.20;;;;;;4990715;28;82734;-39
2024/04/07 13:59:34;;;;;;;;;;;19.20;56.10;;;;;;4996286;28;81933;-39
2024/04/07 14:01:59;;;;;;;;;;;19.30;56.00;;;;;;4992057;28;81855;-39
2024/04/07 14:04:26;;;;;;;;;;;19.20;55.90;;;;;;4991460;28;82846;-40
2024/04/07 14:06:51;;;;;;;;;;;19.30;56.10;;;;;;4990836;28;82878;-39
2024/04/07 14:09:36;;;;;;;;;;;19.30;56.00;;;;;;4999795;28;82855;-39
2024/04/07 14:12:01;;;;;;;;;;;19.30;55.90;;;;;;5002342;28;81855;-39
2024/04/07 14:14:28;;;;;;;;;;;19.30;55.70;;;;;;5006368;28;82402;-39